Time;durP1;ratioP1;P1;durP2;ratioP2;P2;SDS_P1;SDS_P2;PMS_P1;PMS_P2;Temp;Humidity;BMP_temperature;BMP_pressure;BME280_temperature;BME280_humidity;BME280_pressure;Samples;Min_cycle;Max_cycle;Signal;HPM_P1;HPM_P2
2022/03/07 00:03:49;;;;;;;43.10;18.00;;;;;;;;;;10309844;28;20043;-66
2022/03/07 00:08:53;;;;;;;37.85;17.58;;;;;;;;;;10309157;28;20054;-66
2022/03/07 00:13:56;;;;;;;37.60;17.17;;;;;;;;;;10329714;28;20057;-66
2022/03/07 00:18:58;;;;;;;37.63;17.25;;;;;;;;;;10349877;28;20054;-66
2022/03/07 00:24:03;;;;;;;36.67;16.52;;;;;;;;;;10337415;28;20043;-66
2022/03/07 00:29:05;;;;;;;38.03;16.55;;;;;;;;;;10335915;28;20096;-66
2022/03/07 00:34:08;;;;;;;32.63;14.88;;;;;;;;;;10355609;28;20054;-66
2022/03/07 00:39:12;;;;;;;28.70;15.18;;;;;;;;;;10356119;28;20046;-65
2022/03/07 00:44:14;;;;;;;25.65;13.68;;;;;;;;;;10341694;28;20043;-66
2022/03/07 00:49:16;;;;;;;26.52;14.07;;;;;;;;;;10329298;28;20058;-66
2022/03/07 00:54:20;;;;;;;26.70;14.18;;;;;;;;;;10342047;28;20049;-66
2022/03/07 00:59:22;;;;;;;28.63;14.38;;;;;;;;;;10328320;28;20042;-67
2022/03/07 01:04:25;;;;;;;33.15;16.50;;;;;;;;;;10355096;28;20058;-65
2022/03/07 01:09:28;;;;;;;30.17;17.45;;;;;;;;;;10353515;28;20057;-66
2022/03/07 01:14:31;;;;;;;35.10;17.17;;;;;;;;;;10322254;28;20118;-66
2022/03/07 01:19:33;;;;;;;34.30;16.23;;;;;;;;;;10353915;28;20337;-66
2022/03/07 01:24:38;;;;;;;34.42;17.08;;;;;;;;;;10354348;28;20341;-66
2022/03/07 01:29:40;;;;;;;35.15;16.58;;;;;;;;;;10321528;28;20055;-67
2022/03/07 01:34:43;;;;;;;35.22;16.17;;;;;;;;;;10336376;28;20126;-66
2022/03/07 01:39:48;;;;;;;32.22;15.95;;;;;;;;;;10313273;28;20058;-66
2022/03/07 01:44:50;;;;;;;27.80;15.77;;;;;;;;;;10337901;28;20042;-66
2022/03/07 01:49:52;;;;;;;35.03;17.25;;;;;;;;;;10329799;28;20357;-66
2022/03/07 01:54:56;;;;;;;34.55;18.83;;;;;;;;;;10312749;28;20047;-66
2022/03/07 01:59:58;;;;;;;42.20;18.60;;;;;;;;;;10336489;28;20210;-66
2022/03/07 02:05:01;;;;;;;31.42;16.83;;;;;;;;;;10322210;28;20047;-67
2022/03/07 02:10:06;;;;;;;34.65;17.80;;;;;;;;;;10312204;28;20046;-66
2022/03/07 02:15:09;;;;;;;35.05;18.05;;;;;;;;;;10354600;28;20112;-66
2022/03/07 02:20:12;;;;;;;33.97;18.98;;;;;;;;;;10351373;28;20109;-66
2022/03/07 02:25:17;;;;;;;32.15;16.55;;;;;;;;;;10325141;28;20270;-67
2022/03/07 02:30:19;;;;;;;38.47;17.30;;;;;;;;;;10337848;28;20050;-66
2022/03/07 02:35:21;;;;;;;38.45;18.92;;;;;;;;;;10325162;28;20487;-66
2022/03/07 02:40:26;;;;;;;36.08;17.25;;;;;;;;;;10336780;28;20053;-66
2022/03/07 02:45:28;;;;;;;40.55;18.05;;;;;;;;;;10324560;28;20049;-65
2022/03/07 02:50:30;;;;;;;37.88;17.88;;;;;;;;;;10332025;28;20223;-65
2022/03/07 02:55:34;;;;;;;36.70;20.02;;;;;;;;;;10350602;28;20042;-66
2022/03/07 03:00:37;;;;;;;46.17;20.92;;;;;;;;;;10330618;28;20219;-65
2022/03/07 03:05:39;;;;;;;50.50;21.85;;;;;;;;;;10330189;28;20050;-66
2022/03/07 03:10:43;;;;;;;53.92;22.17;;;;;;;;;;10351679;28;20046;-66
2022/03/07 03:15:46;;;;;;;49.17;22.95;;;;;;;;;;10330573;28;20043;-66
2022/03/07 03:20:49;;;;;;;48.72;20.08;;;;;;;;;;10312060;28;20129;-65
2022/03/07 03:25:54;;;;;;;40.83;20.13;;;;;;;;;;10311351;28;20050;-66
2022/03/07 03:30:56;;;;;;;43.10;18.83;;;;;;;;;;10310831;28;20146;-66
2022/03/07 03:36:00;;;;;;;44.45;18.50;;;;;;;;;;10316682;28;20239;-66
2022/03/07 03:41:05;;;;;;;49.00;20.73;;;;;;;;;;10311459;28;20046;-66
2022/03/07 03:46:08;;;;;;;46.88;19.75;;;;;;;;;;10312854;28;20046;-65
2022/03/07 03:51:10;;;;;;;49.33;20.63;;;;;;;;;;10319781;28;20050;-65
2022/03/07 03:56:14;;;;;;;50.00;20.13;;;;;;;;;;10328195;28;20086;-67
2022/03/07 04:01:16;;;;;;;56.53;20.75;;;;;;;;;;10342006;28;20042;-66
2022/03/07 04:06:18;;;;;;;49.00;19.60;;;;;;;;;;10333698;28;20058;-66
2022/03/07 04:11:22;;;;;;;44.72;19.33;;;;;;;;;;10339901;28;20042;-66
2022/03/07 04:16:24;;;;;;;57.75;22.52;;;;;;;;;;10327498;28;20082;-65
2022/03/07 04:21:27;;;;;;;60.50;25.30;;;;;;;;;;10343125;28;20058;-66
2022/03/07 04:26:31;;;;;;;67.63;26.67;;;;;;;;;;10328455;28;20044;-66
2022/03/07 04:31:33;;;;;;;60.67;24.92;;;;;;;;;;10343107;28;20038;-66
2022/03/07 04:36:38;;;;;;;45.33;19.83;;;;;;;;;;10329002;28;20062;-66
2022/03/07 04:41:44;;;;;;;47.05;19.42;;;;;;;;;;10342487;28;20043;-65
2022/03/07 04:46:46;;;;;;;48.13;20.58;;;;;;;;;;10351095;28;20378;-66
2022/03/07 04:51:49;;;;;;;52.60;22.35;;;;;;;;;;10355799;28;20084;-66
2022/03/07 04:56:54;;;;;;;72.57;26.88;;;;;;;;;;10354766;28;20053;-66
2022/03/07 05:01:56;;;;;;;59.25;26.63;;;;;;;;;;10334104;28;20035;-66
2022/03/07 05:06:59;;;;;;;64.30;27.23;;;;;;;;;;10312654;28;20069;-66
2022/03/07 05:12:03;;;;;;;67.80;26.83;;;;;;;;;;10305287;28;20051;-67
2022/03/07 05:17:06;;;;;;;70.03;27.85;;;;;;;;;;10311573;28;20043;-66
2022/03/07 05:22:09;;;;;;;62.90;26.42;;;;;;;;;;10325174;28;20068;-66
2022/03/07 05:27:13;;;;;;;54.53;24.35;;;;;;;;;;10342535;28;20070;-66
2022/03/07 05:32:15;;;;;;;56.38;22.92;;;;;;;;;;10313169;28;20042;-66
2022/03/07 05:37:18;;;;;;;64.63;22.48;;;;;;;;;;10328857;28;20273;-66
2022/03/07 05:42:21;;;;;;;61.42;23.85;;;;;;;;;;10312985;28;20051;-64
2022/03/07 05:47:24;;;;;;;40.05;21.50;;;;;;;;;;10313564;28;20253;-65
2022/03/07 05:52:27;;;;;;;39.25;19.73;;;;;;;;;;10301711;28;20539;-65
2022/03/07 05:57:31;;;;;;;39.80;20.67;;;;;;;;;;10313458;28;20049;-66
2022/03/07 06:02:34;;;;;;;48.45;21.48;;;;;;;;;;10313886;28;20050;-65
2022/03/07 06:07:36;;;;;;;57.95;27.90;;;;;;;;;;10313171;28;20042;-66
2022/03/07 06:12:40;;;;;;;92.75;40.33;;;;;;;;;;10298421;28;20051;-65
2022/03/07 06:17:50;;;;;;;67.90;32.97;;;;;;;;;;10301592;28;20047;-66
2022/03/07 06:22:53;;;;;;;39.10;24.45;;;;;;;;;;10298887;28;20215;-65
2022/03/07 06:27:56;;;;;;;32.88;20.50;;;;;;;;;;10303339;28;20062;-66
2022/03/07 06:32:59;;;;;;;25.35;16.88;;;;;;;;;;10312076;28;20051;-66
2022/03/07 06:38:02;;;;;;;21.88;14.88;;;;;;;;;;10311088;28;20074;-66
2022/03/07 06:43:05;;;;;;;20.95;13.40;;;;;;;;;;10302093;28;20039;-67
2022/03/07 06:48:08;;;;;;;18.85;13.38;;;;;;;;;;10289460;28;20054;-66
2022/03/07 06:53:10;;;;;;;22.23;14.10;;;;;;;;;;10293992;28;20269;-66
2022/03/07 06:58:14;;;;;;;36.88;21.52;;;;;;;;;;10315810;28;20264;-67
2022/03/07 07:03:16;;;;;;;35.88;18.30;;;;;;;;;;10345237;28;20062;-67
2022/03/07 07:08:18;;;;;;;37.13;19.70;;;;;;;;;;10316507;28;20046;-68
2022/03/07 07:13:22;;;;;;;43.05;24.20;;;;;;;;;;10324325;28;20089;-67
2022/03/07 07:18:25;;;;;;;39.33;25.38;;;;;;;;;;10303545;28;20086;-66
2022/03/07 07:23:28;;;;;;;35.20;20.75;;;;;;;;;;10310572;28;20054;-66
2022/03/07 07:28:32;;;;;;;28.95;19.35;;;;;;;;;;10298618;28;20265;-67
2022/03/07 07:33:34;;;;;;;38.20;20.58;;;;;;;;;;10285853;28;20077;-67
2022/03/07 07:38:37;;;;;;;31.58;18.13;;;;;;;;;;10324229;28;20253;-66
2022/03/07 07:43:41;;;;;;;30.52;19.10;;;;;;;;;;10353428;28;20133;-66
2022/03/07 07:48:43;;;;;;;50.35;21.92;;;;;;;;;;10324826;28;20050;-66
2022/03/07 07:53:46;;;;;;;49.40;21.52;;;;;;;;;;10339610;28;20057;-67
2022/03/07 07:58:50;;;;;;;38.72;20.08;;;;;;;;;;10314822;28;20038;-66
2022/03/07 08:03:52;;;;;;;35.95;19.55;;;;;;;;;;10321392;28;20038;-66
2022/03/07 08:08:54;;;;;;;46.05;21.75;;;;;;;;;;10315490;28;20054;-64
2022/03/07 08:13:58;;;;;;;45.85;24.85;;;;;;;;;;10319085;28;20058;-65
2022/03/07 08:19:00;;;;;;;59.97;25.58;;;;;;;;;;10317789;28;20239;-67
2022/03/07 08:24:03;;;;;;;61.65;29.55;;;;;;;;;;10291433;28;20325;-67
2022/03/07 08:29:07;;;;;;;51.55;27.15;;;;;;;;;;10319481;28;20053;-65
2022/03/07 08:34:10;;;;;;;39.65;23.42;;;;;;;;;;10332324;28;20051;-66
2022/03/07 08:39:12;;;;;;;44.95;24.58;;;;;;;;;;10293357;28;20043;-66
2022/03/07 08:44:16;;;;;;;33.80;19.48;;;;;;;;;;10283323;28;20077;-66
2022/03/07 08:49:18;;;;;;;47.83;22.75;;;;;;;;;;10311737;28;20051;-67
2022/03/07 08:54:21;;;;;;;49.00;28.80;;;;;;;;;;10296896;28;20113;-68
2022/03/07 08:59:27;;;;;;;38.42;21.83;;;;;;;;;;10310102;28;20039;-67
2022/03/07 09:04:29;;;;;;;52.92;28.80;;;;;;;;;;10327886;28;20043;-67
2022/03/07 09:09:32;;;;;;;43.95;28.15;;;;;;;;;;10318493;28;20043;-67
2022/03/07 09:14:36;;;;;;;34.37;22.03;;;;;;;;;;10309767;28;20057;-67
2022/03/07 09:19:39;;;;;;;38.40;23.80;;;;;;;;;;10315759;28;20050;-66
2022/03/07 09:24:42;;;;;;;31.03;19.17;;;;;;;;;;10315621;28;20054;-67
2022/03/07 09:29:46;;;;;;;24.27;15.47;;;;;;;;;;10347341;28;20046;-66
2022/03/07 09:34:48;;;;;;;25.58;17.75;;;;;;;;;;10297774;28;20058;-68
2022/03/07 09:39:51;;;;;;;23.40;16.40;;;;;;;;;;10281377;28;20070;-68
2022/03/07 09:44:55;;;;;;;30.25;18.10;;;;;;;;;;10306049;28;20042;-68
2022/03/07 09:49:57;;;;;;;26.47;16.87;;;;;;;;;;10311779;28;20082;-68
2022/03/07 09:54:59;;;;;;;26.77;17.92;;;;;;;;;;10308498;28;20051;-67
2022/03/07 10:00:05;;;;;;;31.80;18.90;;;;;;;;;;10313197;28;20046;-67
2022/03/07 10:05:08;;;;;;;27.27;15.13;;;;;;;;;;10346572;28;20039;-68
2022/03/07 10:10:11;;;;;;;21.75;13.77;;;;;;;;;;10312565;28;20062;-68
2022/03/07 10:15:16;;;;;;;21.35;13.57;;;;;;;;;;10348702;28;20392;-69
2022/03/07 10:20:20;;;;;;;33.70;17.98;;;;;;;;;;10338103;28;20357;-73
2022/03/07 10:25:25;;;;;;;20.25;13.15;;;;;;;;;;10312262;28;20053;-69
2022/03/07 10:30:33;;;;;;;28.33;14.93;;;;;;;;;;10311986;28;20042;-71
2022/03/07 10:35:37;;;;;;;36.17;18.80;;;;;;;;;;10318033;28;20062;-67
2022/03/07 10:40:41;;;;;;;15.02;9.73;;;;;;;;;;10311707;28;20055;-70
2022/03/07 10:45:50;;;;;;;24.70;11.05;;;;;;;;;;10311134;28;20051;-69
2022/03/07 10:50:54;;;;;;;15.05;9.23;;;;;;;;;;10311192;28;20046;-71
2022/03/07 10:55:58;;;;;;;19.23;10.83;;;;;;;;;;10280550;28;20373;-69
2022/03/07 11:01:04;;;;;;;36.72;20.50;;;;;;;;;;10271813;28;20054;-71
2022/03/07 11:06:06;;;;;;;13.90;8.38;;;;;;;;;;10333487;28;20066;-71
2022/03/07 11:11:08;;;;;;;19.38;7.90;;;;;;;;;;10311088;28;20101;-71
2022/03/07 11:16:13;;;;;;;12.95;7.55;;;;;;;;;;10322483;28;20034;-68
2022/03/07 11:21:15;;;;;;;18.77;9.18;;;;;;;;;;10318324;28;20039;-68
2022/03/07 11:26:20;;;;;;;10.18;6.95;;;;;;;;;;10331199;28;20045;-70
2022/03/07 11:31:26;;;;;;;9.27;6.60;;;;;;;;;;10311301;28;20276;-69
2022/03/07 11:36:30;;;;;;;8.40;6.45;;;;;;;;;;10302900;28;20123;-69
2022/03/07 11:41:36;;;;;;;14.93;6.80;;;;;;;;;;10311030;28;20047;-68
2022/03/07 11:46:42;;;;;;;9.25;6.13;;;;;;;;;;10313325;28;20655;-68
2022/03/07 11:51:44;;;;;;;13.32;7.18;;;;;;;;;;10304488;28;20105;-68
2022/03/07 11:56:47;;;;;;;7.70;4.03;;;;;;;;;;10311223;28;20043;-68
2022/03/07 12:01:54;;;;;;;5.93;3.70;;;;;;;;;;10299001;28;20116;-68
2022/03/07 12:06:56;;;;;;;9.43;4.57;;;;;;;;;;10315638;28;20046;-67
2022/03/07 12:11:59;;;;;;;8.27;4.50;;;;;;;;;;10315726;28;20237;-68
2022/03/07 12:17:12;;;;;;;6.15;3.65;;;;;;;;;;10304800;28;20094;-67
2022/03/07 12:22:16;;;;;;;7.40;3.90;;;;;;;;;;10363269;28;20042;-67
2022/03/07 12:27:18;;;;;;;6.00;3.13;;;;;;;;;;10358664;28;20042;-68
2022/03/07 12:32:22;;;;;;;4.88;2.38;;;;;;;;;;10349356;28;20047;-67
2022/03/07 12:37:28;;;;;;;4.95;2.15;;;;;;;;;;10335366;28;20051;-67
2022/03/07 12:42:33;;;;;;;6.03;2.25;;;;;;;;;;10290011;28;20047;-72
2022/03/07 12:47:39;;;;;;;2.42;1.50;;;;;;;;;;10334107;28;20046;-70
2022/03/07 12:52:43;;;;;;;5.72;2.33;;;;;;;;;;10317840;28;20130;-69
2022/03/07 12:57:45;;;;;;;10.50;4.93;;;;;;;;;;10322068;28;20038;-67
2022/03/07 13:02:51;;;;;;;5.85;3.47;;;;;;;;;;10356317;28;20241;-70
2022/03/07 13:07:58;;;;;;;6.38;4.93;;;;;;;;;;10312990;28;20102;-66
2022/03/07 13:13:04;;;;;;;6.15;4.38;;;;;;;;;;10354478;28;20130;-69
2022/03/07 13:18:08;;;;;;;6.22;3.40;;;;;;;;;;10325089;28;20073;-68
2022/03/07 13:23:10;;;;;;;12.85;3.75;;;;;;;;;;10318046;28;20344;-68
2022/03/07 13:28:13;;;;;;;7.28;2.45;;;;;;;;;;10347935;28;20055;-69
2022/03/07 13:33:16;;;;;;;6.38;2.88;;;;;;;;;;10313166;28;20053;-70
2022/03/07 13:38:21;;;;;;;5.50;2.85;;;;;;;;;;10293099;28;20077;-69
2022/03/07 13:43:27;;;;;;;6.23;2.93;;;;;;;;;;10272267;28;20043;-70
2022/03/07 13:48:31;;;;;;;6.00;2.90;;;;;;;;;;10304339;28;20046;-67
2022/03/07 13:53:34;;;;;;;14.82;8.27;;;;;;;;;;10312208;28;20046;-69
2022/03/07 13:58:37;;;;;;;8.98;5.25;;;;;;;;;;10311684;28;20051;-69
2022/03/07 14:03:41;;;;;;;8.40;5.05;;;;;;;;;;10310924;28;20226;-68
2022/03/07 14:08:45;;;;;;;5.20;2.33;;;;;;;;;;10312063;28;20054;-68
2022/03/07 14:13:50;;;;;;;6.85;3.67;;;;;;;;;;10292629;28;20051;-69
2022/03/07 14:18:54;;;;;;;10.55;3.53;;;;;;;;;;10311254;28;20050;-68
2022/03/07 14:23:56;;;;;;;8.07;3.88;;;;;;;;;;10308167;28;20035;-68
2022/03/07 14:29:03;;;;;;;5.88;3.03;;;;;;;;;;10271755;29;20054;-68
2022/03/07 14:34:07;;;;;;;7.03;2.78;;;;;;;;;;10239543;28;1215594;-69
2022/03/07 14:39:11;;;;;;;8.10;2.50;;;;;;;;;;10293142;28;20102;-68
2022/03/07 14:44:13;;;;;;;9.75;2.97;;;;;;;;;;10313320;28;20113;-68
2022/03/07 14:49:17;;;;;;;9.48;2.88;;;;;;;;;;10313793;28;20090;-69
2022/03/07 14:54:20;;;;;;;8.07;4.90;;;;;;;;;;10303232;28;20274;-69
2022/03/07 14:59:22;;;;;;;8.18;4.72;;;;;;;;;;10273799;28;20059;-69
2022/03/07 15:04:26;;;;;;;14.13;5.10;;;;;;;;;;10273839;28;20047;-68
2022/03/07 15:09:28;;;;;;;10.43;4.93;;;;;;;;;;10273515;28;20057;-68
2022/03/07 15:14:31;;;;;;;8.48;4.47;;;;;;;;;;10273406;28;20062;-69
2022/03/07 15:19:35;;;;;;;9.90;4.03;;;;;;;;;;10275903;28;20339;-69
2022/03/07 15:24:37;;;;;;;8.93;4.13;;;;;;;;;;10274689;28;20098;-68
2022/03/07 15:29:39;;;;;;;9.60;4.28;;;;;;;;;;10304964;28;20230;-69
2022/03/07 15:34:44;;;;;;;6.68;3.83;;;;;;;;;;10273025;28;20059;-69
2022/03/07 15:39:46;;;;;;;7.07;4.10;;;;;;;;;;10276612;28;20054;-68
2022/03/07 15:44:49;;;;;;;7.47;3.90;;;;;;;;;;10311498;28;20070;-67
2022/03/07 15:49:52;;;;;;;5.38;3.22;;;;;;;;;;10310960;28;20054;-67
2022/03/07 15:54:55;;;;;;;8.02;3.60;;;;;;;;;;10319584;28;20055;-67
2022/03/07 15:59:57;;;;;;;8.68;3.40;;;;;;;;;;10317049;28;20065;-68
2022/03/07 16:05:01;;;;;;;7.60;2.78;;;;;;;;;;10301187;28;20066;-68
2022/03/07 16:10:04;;;;;;;12.57;3.38;;;;;;;;;;10296915;28;20098;-68
2022/03/07 16:15:07;;;;;;;7.22;3.75;;;;;;;;;;10320556;28;20051;-68
2022/03/07 16:20:12;;;;;;;7.45;3.33;;;;;;;;;;10308188;28;20062;-68
2022/03/07 16:25:14;;;;;;;11.00;3.42;;;;;;;;;;10318544;28;20055;-67
2022/03/07 16:30:16;;;;;;;9.23;4.13;;;;;;;;;;10318471;28;20046;-66
2022/03/07 16:35:21;;;;;;;11.57;3.90;;;;;;;;;;10319108;28;20059;-68
2022/03/07 16:40:23;;;;;;;24.25;7.22;;;;;;;;;;10318414;28;20093;-67
2022/03/07 16:45:25;;;;;;;24.67;9.43;;;;;;;;;;10297821;28;20047;-68
2022/03/07 16:50:29;;;;;;;12.15;5.60;;;;;;;;;;10316118;28;20078;-68
2022/03/07 16:55:32;;;;;;;10.93;5.18;;;;;;;;;;10297254;28;20071;-67
2022/03/07 17:00:34;;;;;;;17.05;6.70;;;;;;;;;;10293233;28;20081;-69
2022/03/07 17:05:38;;;;;;;19.60;7.85;;;;;;;;;;10278541;28;20051;-67
2022/03/07 17:10:41;;;;;;;16.15;6.47;;;;;;;;;;10305881;28;20058;-68
2022/03/07 17:15:43;;;;;;;20.60;8.23;;;;;;;;;;10284241;28;20138;-68
2022/03/07 17:20:47;;;;;;;18.95;6.78;;;;;;;;;;10300483;28;20042;-67
2022/03/07 17:25:51;;;;;;;19.35;7.32;;;;;;;;;;10287044;28;20043;-67
2022/03/07 17:30:53;;;;;;;26.52;10.30;;;;;;;;;;10277371;28;20346;-67
2022/03/07 17:35:57;;;;;;;24.45;8.85;;;;;;;;;;10304392;28;20289;-67
2022/03/07 17:41:00;;;;;;;17.48;8.15;;;;;;;;;;10292085;28;20058;-67
2022/03/07 17:46:02;;;;;;;19.90;7.95;;;;;;;;;;10308958;28;20043;-68
2022/03/07 17:51:06;;;;;;;19.27;7.22;;;;;;;;;;10291630;28;20055;-66
2022/03/07 17:56:08;;;;;;;16.90;6.55;;;;;;;;;;10278429;28;20043;-67
2022/03/07 18:01:11;;;;;;;15.77;7.05;;;;;;;;;;10305790;28;20086;-67
2022/03/07 18:06:14;;;;;;;17.35;7.38;;;;;;;;;;10285246;28;20058;-67
2022/03/07 18:11:17;;;;;;;21.98;8.23;;;;;;;;;;10314618;28;20053;-66
2022/03/07 18:16:19;;;;;;;15.30;7.10;;;;;;;;;;10296798;28;20043;-67
2022/03/07 18:21:23;;;;;;;13.05;6.10;;;;;;;;;;10299814;28;20266;-68
2022/03/07 18:26:25;;;;;;;20.67;6.50;;;;;;;;;;10300738;28;20046;-67
2022/03/07 18:31:28;;;;;;;11.30;6.15;;;;;;;;;;10310542;28;20046;-68
2022/03/07 18:36:32;;;;;;;15.07;7.82;;;;;;;;;;10309776;28;20067;-68
2022/03/07 18:41:37;;;;;;;21.48;9.77;;;;;;;;;;10325494;28;20094;-69
2022/03/07 18:46:41;;;;;;;26.73;11.07;;;;;;;;;;10291762;28;20094;-66
2022/03/07 18:51:45;;;;;;;27.95;11.85;;;;;;;;;;10282973;28;20086;-67
2022/03/07 18:56:47;;;;;;;27.20;11.48;;;;;;;;;;10293544;28;21377;-67
2022/03/07 19:01:50;;;;;;;25.05;11.43;;;;;;;;;;10298943;28;20062;-68
2022/03/07 19:06:54;;;;;;;33.10;12.25;;;;;;;;;;10311503;28;20051;-66
2022/03/07 19:11:56;;;;;;;26.23;10.30;;;;;;;;;;10311098;28;20223;-68
2022/03/07 19:16:58;;;;;;;29.70;11.30;;;;;;;;;;10311077;28;20042;-67
2022/03/07 19:22:03;;;;;;;23.42;10.68;;;;;;;;;;10311581;28;20242;-66
2022/03/07 19:27:05;;;;;;;24.90;10.93;;;;;;;;;;10300563;28;20330;-68
2022/03/07 19:32:08;;;;;;;34.42;14.57;;;;;;;;;;10304320;28;20047;-66
2022/03/07 19:37:13;;;;;;;38.53;15.55;;;;;;;;;;10308580;28;20396;-67
2022/03/07 19:42:15;;;;;;;33.03;14.85;;;;;;;;;;10310600;28;20046;-67
2022/03/07 19:47:18;;;;;;;40.67;16.92;;;;;;;;;;10291148;28;20043;-68
2022/03/07 19:52:22;;;;;;;48.97;18.35;;;;;;;;;;10309251;28;20054;-67
2022/03/07 19:57:24;;;;;;;43.67;15.75;;;;;;;;;;10298584;28;20227;-67
2022/03/07 20:02:27;;;;;;;38.47;15.52;;;;;;;;;;10306275;28;20069;-67
2022/03/07 20:07:31;;;;;;;37.65;17.17;;;;;;;;;;10350014;28;20046;-66
2022/03/07 20:12:33;;;;;;;31.27;14.75;;;;;;;;;;10326424;28;20047;-67
2022/03/07 20:17:36;;;;;;;31.67;14.27;;;;;;;;;;10298798;28;20058;-68
2022/03/07 20:22:40;;;;;;;25.45;12.20;;;;;;;;;;10350697;28;20050;-67
2022/03/07 20:27:43;;;;;;;20.02;8.00;;;;;;;;;;10324342;28;20035;-67
2022/03/07 20:32:46;;;;;;;17.13;6.57;;;;;;;;;;10310442;28;20050;-67
2022/03/07 20:37:51;;;;;;;18.35;6.80;;;;;;;;;;10311762;28;20051;-66
2022/03/07 20:42:53;;;;;;;14.10;7.13;;;;;;;;;;10316304;28;20046;-66
2022/03/07 20:47:56;;;;;;;22.77;7.72;;;;;;;;;;10317023;28;20055;-67
2022/03/07 20:53:00;;;;;;;18.88;7.80;;;;;;;;;;10299492;28;20062;-68
2022/03/07 20:58:03;;;;;;;23.35;9.63;;;;;;;;;;10300516;28;20051;-67
2022/03/07 21:03:05;;;;;;;29.70;11.70;;;;;;;;;;10339846;28;20050;-68
2022/03/07 21:08:09;;;;;;;27.15;12.68;;;;;;;;;;10309539;28;20051;-68
2022/03/07 21:13:11;;;;;;;19.23;9.38;;;;;;;;;;10341831;28;20058;-67
2022/03/07 21:18:14;;;;;;;20.80;7.70;;;;;;;;;;10339774;28;20090;-67
2022/03/07 21:23:19;;;;;;;17.60;7.47;;;;;;;;;;10305552;28;20058;-67
2022/03/07 21:28:21;;;;;;;19.80;9.02;;;;;;;;;;10335961;28;20042;-67
2022/03/07 21:33:23;;;;;;;18.65;8.20;;;;;;;;;;10342781;28;20054;-65
2022/03/07 21:38:28;;;;;;;18.98;9.18;;;;;;;;;;10282999;28;20162;-68
2022/03/07 21:43:30;;;;;;;19.10;10.47;;;;;;;;;;10308174;28;20053;-67
2022/03/07 21:48:33;;;;;;;23.17;11.15;;;;;;;;;;10314101;28;20051;-68
2022/03/07 21:53:36;;;;;;;24.20;11.38;;;;;;;;;;10327932;28;20046;-68
2022/03/07 21:58:38;;;;;;;25.63;12.25;;;;;;;;;;10354548;28;20290;-67
2022/03/07 22:03:41;;;;;;;26.65;11.20;;;;;;;;;;10337054;28;20050;-68
2022/03/07 22:08:45;;;;;;;32.33;12.52;;;;;;;;;;10353321;28;20069;-66
2022/03/07 22:13:47;;;;;;;29.02;13.00;;;;;;;;;;10353872;28;20072;-67
2022/03/07 22:18:50;;;;;;;28.20;12.98;;;;;;;;;;10279731;28;20063;-67
2022/03/07 22:23:56;;;;;;;31.08;14.05;;;;;;;;;;10284655;28;20054;-67
2022/03/07 22:28:58;;;;;;;29.08;13.55;;;;;;;;;;10305326;28;20041;-67
2022/03/07 22:34:00;;;;;;;32.03;13.13;;;;;;;;;;10306405;28;20059;-67
2022/03/07 22:39:05;;;;;;;31.45;12.95;;;;;;;;;;10311491;28;20121;-67
2022/03/07 22:44:08;;;;;;;26.48;12.38;;;;;;;;;;10355434;28;20050;-66
2022/03/07 22:49:10;;;;;;;39.90;14.98;;;;;;;;;;10320836;28;20260;-67
2022/03/07 22:54:14;;;;;;;50.08;19.65;;;;;;;;;;10311286;28;20101;-68
2022/03/07 22:59:16;;;;;;;54.78;22.70;;;;;;;;;;10342303;28;20050;-66
2022/03/07 23:04:19;;;;;;;53.22;24.52;;;;;;;;;;10350643;28;20045;-67
2022/03/07 23:09:22;;;;;;;50.10;21.67;;;;;;;;;;10325499;28;20098;-67
2022/03/07 23:14:25;;;;;;;48.95;20.92;;;;;;;;;;10329689;28;20377;-68
2022/03/07 23:19:27;;;;;;;50.85;22.23;;;;;;;;;;10331789;28;20042;-68
2022/03/07 23:24:31;;;;;;;45.72;22.25;;;;;;;;;;10313733;28;20062;-66
2022/03/07 23:29:34;;;;;;;40.90;19.15;;;;;;;;;;10310471;28;20058;-66
2022/03/07 23:34:36;;;;;;;35.75;16.88;;;;;;;;;;10310350;28;20344;-68
2022/03/07 23:39:41;;;;;;;45.88;18.73;;;;;;;;;;10324503;28;20086;-67
2022/03/07 23:44:43;;;;;;;51.00;20.57;;;;;;;;;;10291379;28;20043;-65
2022/03/07 23:49:45;;;;;;;45.85;18.80;;;;;;;;;;10311052;28;20262;-67
2022/03/07 23:54:49;;;;;;;50.85;21.58;;;;;;;;;;10350652;28;20046;-68
2022/03/07 23:59:52;;;;;;;45.60;19.65;;;;;;;;;;10309594;28;20122;-67
